Time;durP1;ratioP1;P1;durP2;ratioP2;P2;SDS_P1;SDS_P2;PMS_P1;PMS_P2;Temp;Humidity;BMP_temperature;BMP_pressure;BME280_temperature;BME280_humidity;BME280_pressure;Samples;Min_cycle;Max_cycle;Signal;HPM_P1;HPM_P2
2022/06/15 00:02:14;;;;;;;5.70;2.78;;;;;;;13.71;61.10;101594.41;5030724;28;20522;-66
2022/06/15 00:04:42;;;;;;;7.88;2.90;;;;;;;13.66;61.25;101591.16;5028632;28;20134;-66
2022/06/15 00:07:08;;;;;;;8.90;2.70;;;;;;;13.71;61.39;101589.13;5030039;28;20099;-66
2022/06/15 00:09:35;;;;;;;8.30;2.40;;;;;;;13.34;61.01;101587.50;5030328;28;21003;-66
2022/06/15 00:12:02;;;;;;;4.90;2.45;;;;;;;13.58;61.43;101596.81;5028847;28;20048;-66
2022/06/15 00:14:30;;;;;;;6.45;2.88;;;;;;;13.54;61.12;101604.94;5029869;28;20054;-66
2022/06/15 00:16:56;;;;;;;8.30;3.83;;;;;;;13.30;62.07;101595.66;5030422;28;20053;-66
2022/06/15 00:19:23;;;;;;;5.43;2.85;;;;;;;13.26;62.48;101597.59;5029139;28;20050;-66
2022/06/15 00:21:51;;;;;;;7.03;2.70;;;;;;;13.28;63.28;101589.59;5030649;28;20103;-66
2022/06/15 00:24:18;;;;;;;6.57;2.53;;;;;;;12.80;64.26;101592.78;5027363;28;20107;-66
2022/06/15 00:26:44;;;;;;;10.80;3.10;;;;;;;12.38;65.72;101591.22;5025841;28;20486;-66
2022/06/15 00:29:11;;;;;;;6.15;2.65;;;;;;;12.24;67.05;101592.75;5025366;28;20046;-66
2022/06/15 00:31:38;;;;;;;4.53;2.40;;;;;;;12.43;65.76;101591.88;5027315;28;20059;-66
2022/06/15 00:34:04;;;;;;;6.05;2.97;;;;;;;12.78;64.77;101586.75;5024503;28;20049;-66
2022/06/15 00:36:31;;;;;;;10.55;2.67;;;;;;;13.00;64.31;101590.06;5027211;28;20037;-66
2022/06/15 00:39:00;;;;;;;6.38;2.97;;;;;;;12.83;64.21;101588.22;5024894;28;20461;-66
2022/06/15 00:41:29;;;;;;;6.55;3.03;;;;;;;12.38;66.39;101591.22;5026116;28;20095;-66
2022/06/15 00:43:57;;;;;;;7.63;3.30;;;;;;;12.53;65.61;101593.13;5027073;28;20050;-66
2022/06/15 00:46:28;;;;;;;9.70;3.30;;;;;;;12.57;65.52;101593.84;5027073;28;20576;-66
2022/06/15 00:48:59;;;;;;;7.28;3.13;;;;;;;12.96;64.25;101594.63;5024417;28;20049;-66
2022/06/15 00:51:25;;;;;;;6.60;3.17;;;;;;;12.96;63.72;101599.03;5025959;28;20092;-66
2022/06/15 00:53:53;;;;;;;7.93;3.17;;;;;;;12.97;63.78;101593.69;5025884;28;20053;-66
2022/06/15 00:56:21;;;;;;;7.07;3.30;;;;;;;13.15;63.06;101594.63;5025512;28;20053;-66
2022/06/15 00:58:51;;;;;;;7.63;3.35;;;;;;;13.26;62.75;101592.31;5024968;28;20053;-66
2022/06/15 01:01:17;;;;;;;7.57;3.33;;;;;;;13.30;62.65;101590.38;5026111;28;20045;-66
2022/06/15 01:03:46;;;;;;;10.20;3.30;;;;;;;13.30;62.72;101593.88;5026750;28;20469;-66
2022/06/15 01:06:22;;;;;;;8.73;3.17;;;;;;;13.23;62.88;101592.44;5005257;28;20060;-66
2022/06/15 01:08:58;;;;;;;7.72;3.00;;;;;;;13.06;63.50;101595.88;5005595;28;20056;-66
2022/06/15 01:11:40;;;;;;;6.65;3.30;;;;;;;13.08;62.88;101588.75;5006250;28;20108;-70
2022/06/15 01:14:25;;;;;;;8.95;3.20;;;;;;;13.20;62.32;101579.44;5022897;28;20050;-70
2022/06/15 01:16:59;;;;;;;6.78;2.97;;;;;;;13.29;62.48;101581.63;5006768;28;20053;-70
2022/06/15 01:19:51;;;;;;;8.23;3.20;;;;;;;13.21;62.65;101581.16;5017118;28;20041;-70
2022/06/15 01:22:37;;;;;;;8.02;3.05;;;;;;;13.13;61.74;101572.75;5023925;28;20050;-70
2022/06/15 01:25:27;;;;;;;7.10;3.05;;;;;;;12.94;62.22;101572.75;5025230;28;20049;-70
2022/06/15 01:28:15;;;;;;;6.18;3.10;;;;;;;12.79;63.02;101570.88;5018368;28;20118;-71
2022/06/15 01:30:49;;;;;;;7.88;3.50;;;;;;;12.82;63.18;101576.00;5022920;28;20037;-70
2022/06/15 01:33:26;;;;;;;6.93;3.10;;;;;;;12.75;63.40;101573.75;5024336;28;20132;-70
2022/06/15 01:36:03;;;;;;;5.85;3.20;;;;;;;12.91;62.45;101574.69;5023104;28;20049;-70
2022/06/15 01:38:39;;;;;;;6.53;3.45;;;;;;;12.93;61.99;101568.44;5025340;28;20046;-70
2022/06/15 01:41:14;;;;;;;10.85;3.33;;;;;;;13.01;62.06;101571.53;5025163;28;20072;-70
2022/06/15 01:43:46;;;;;;;5.88;3.08;;;;;;;12.95;62.42;101576.25;5025769;28;20131;-70
2022/06/15 01:46:14;;;;;;;6.10;2.88;;;;;;;12.95;61.67;101563.09;5026134;28;20740;-70
2022/06/15 01:48:40;;;;;;;5.00;2.72;;;;;;;13.02;61.30;101567.13;5025440;28;20049;-71
2022/06/15 01:51:14;;;;;;;7.05;3.00;;;;;;;12.87;61.41;101567.88;5036472;28;20052;-71
2022/06/15 01:53:45;;;;;;;8.30;2.83;;;;;;;12.81;61.54;101562.91;5031955;28;20076;-71
2022/06/15 01:56:16;;;;;;;4.07;2.55;;;;;;;12.64;61.78;101563.69;5024400;28;20053;-70
2022/06/15 01:58:46;;;;;;;7.13;3.22;;;;;;;12.58;61.98;101570.13;5027869;28;20049;-71
2022/06/15 02:01:17;;;;;;;7.40;3.20;;;;;;;12.53;62.07;101564.19;5022690;28;20096;-71
2022/06/15 02:03:50;;;;;;;7.55;3.50;;;;;;;12.40;62.51;101563.06;5024390;28;20044;-71
2022/06/15 02:06:26;;;;;;;11.43;4.00;;;;;;;12.24;63.17;101556.81;5026061;28;20044;-70
2022/06/15 02:08:59;;;;;;;9.43;3.33;;;;;;;12.07;63.71;101556.72;5035502;28;20131;-71
2022/06/15 02:11:31;;;;;;;10.80;3.55;;;;;;;11.96;64.31;101559.84;5025042;28;20107;-71
2022/06/15 02:14:01;;;;;;;7.78;3.40;;;;;;;11.84;65.10;101551.63;5024371;28;20720;-71
2022/06/15 02:16:32;;;;;;;12.73;3.90;;;;;;;11.90;65.20;101559.25;5024207;28;20091;-70
2022/06/15 02:19:01;;;;;;;7.07;3.20;;;;;;;11.99;64.55;101556.22;5022768;28;20104;-70
2022/06/15 02:21:29;;;;;;;6.82;3.30;;;;;;;11.85;64.79;101553.34;5025228;28;20168;-70
2022/06/15 02:24:00;;;;;;;14.40;3.60;;;;;;;11.84;64.99;101563.00;5023981;28;20107;-70
2022/06/15 02:26:30;;;;;;;8.35;4.00;;;;;;;11.79;65.02;101558.88;5031877;28;20106;-69
2022/06/15 02:29:01;;;;;;;13.18;3.85;;;;;;;11.84;64.61;101559.50;5023997;28;20068;-68
2022/06/15 02:31:29;;;;;;;8.13;3.60;;;;;;;11.84;65.06;101552.47;5024222;28;20045;-69
2022/06/15 02:33:57;;;;;;;9.75;4.20;;;;;;;11.81;65.31;101557.88;5023060;28;20041;-69
2022/06/15 02:36:23;;;;;;;9.57;3.60;;;;;;;11.83;64.90;101553.41;5023750;28;20452;-69
2022/06/15 02:38:51;;;;;;;9.50;4.40;;;;;;;11.79;65.54;101545.75;5024446;28;20057;-69
2022/06/15 02:41:20;;;;;;;12.90;4.15;;;;;;;11.66;66.11;101555.88;5023564;28;20053;-69
2022/06/15 02:43:48;;;;;;;10.07;3.55;;;;;;;11.59;65.55;101552.66;5023724;28;20037;-69
2022/06/15 02:46:16;;;;;;;5.75;3.38;;;;;;;11.58;65.49;101553.59;5025301;28;20045;-69
2022/06/15 02:48:45;;;;;;;7.72;3.63;;;;;;;11.65;65.54;101546.28;5023760;28;20059;-69
2022/06/15 02:51:18;;;;;;;10.40;3.75;;;;;;;11.52;65.58;101542.50;5023947;28;20049;-69
2022/06/15 02:53:45;;;;;;;;;;;;;;;11.67;65.23;101544.47;5023653;28;20057;-69
2022/06/15 02:56:14;;;;;;;6.78;3.47;;;;;;;11.80;65.02;101547.41;5022927;28;19947;-69
2022/06/15 02:58:44;;;;;;;10.77;3.67;;;;;;;11.74;64.85;101542.44;5023720;28;20099;-69
2022/06/15 03:01:11;;;;;;;7.43;3.22;;;;;;;11.77;64.01;101543.16;5022919;28;20103;-69
2022/06/15 03:03:38;;;;;;;6.40;3.08;;;;;;;11.88;64.12;101535.66;5023760;28;20045;-68
2022/06/15 03:06:09;;;;;;;11.45;4.20;;;;;;;11.95;64.46;101541.50;5021543;28;20092;-68
2022/06/15 03:08:36;;;;;;;7.15;3.80;;;;;;;11.93;64.28;101544.22;5021937;28;20518;-68
2022/06/15 03:11:02;;;;;;;8.95;3.10;;;;;;;11.76;65.22;101543.22;5021787;28;20111;-68
2022/06/15 03:13:28;;;;;;;12.65;3.78;;;;;;;11.57;66.02;101545.75;5024592;28;20041;-68
2022/06/15 03:15:57;;;;;;;7.43;3.88;;;;;;;11.52;66.37;101550.38;5021839;28;20417;-68
2022/06/15 03:18:23;;;;;;;11.32;4.05;;;;;;;11.44;66.78;101548.06;5022574;28;20576;-69
2022/06/15 03:20:49;;;;;;;6.50;3.65;;;;;;;11.55;66.37;101545.84;5024610;28;20136;-70
2022/06/15 03:23:17;;;;;;;11.27;3.88;;;;;;;11.83;65.70;101545.50;5021586;28;20417;-70
2022/06/15 03:25:44;;;;;;;6.55;3.70;;;;;;;11.97;65.05;101539.66;5022944;28;20609;-69
2022/06/15 03:28:10;;;;;;;8.25;3.80;;;;;;;12.09;64.80;101536.47;5032920;28;20073;-69
2022/06/15 03:30:38;;;;;;;10.18;4.35;;;;;;;11.92;65.27;101528.50;5035482;28;20073;-70
2022/06/15 03:33:05;;;;;;;13.27;4.40;;;;;;;11.81;66.05;101526.34;5023792;28;20132;-69
2022/06/15 03:35:35;;;;;;;13.07;3.92;;;;;;;11.71;66.93;101530.31;5024588;28;20041;-69
2022/06/15 03:38:02;;;;;;;9.52;4.03;;;;;;;11.43;67.16;101525.34;5026075;28;20054;-69
2022/06/15 03:40:30;;;;;;;11.40;4.10;;;;;;;11.32;68.52;101524.09;5037195;28;20657;-69
2022/06/15 03:42:57;;;;;;;8.23;4.38;;;;;;;11.40;68.89;101525.47;5026319;28;20430;-69
2022/06/15 03:45:23;;;;;;;10.50;4.07;;;;;;;11.79;67.70;101528.16;5022993;28;20508;-69
2022/06/15 03:47:49;;;;;;;9.85;3.80;;;;;;;12.13;66.32;101536.25;5037191;28;20584;-69
2022/06/15 03:50:16;;;;;;;7.07;3.80;;;;;;;12.23;66.30;101527.97;5041495;28;20041;-69
2022/06/15 03:52:42;;;;;;;12.95;4.18;;;;;;;12.27;66.25;101535.63;5023131;28;20072;-69
2022/06/15 03:55:09;;;;;;;7.60;3.67;;;;;;;12.33;65.54;101535.34;5023377;28;20091;-69
2022/06/15 03:57:37;;;;;;;8.43;4.07;;;;;;;12.44;65.21;101534.84;5024912;28;20119;-69
2022/06/15 04:00:04;;;;;;;7.20;3.92;;;;;;;12.36;65.94;101536.97;5036829;28;20049;-69
2022/06/15 04:02:31;;;;;;;5.88;3.08;;;;;;;12.32;65.60;101536.28;5028227;28;20046;-69
2022/06/15 04:04:57;;;;;;;13.35;4.13;;;;;;;12.50;65.00;101532.78;5027426;28;20465;-69
2022/06/15 04:10:09;;;;;;;7.63;3.60;;;;;;;12.44;66.33;101545.38;5044925;28;20126;-69
2022/06/15 04:12:38;;;;;;;8.88;3.88;;;;;;;12.29;66.11;101540.81;5026554;28;20476;-68
2022/06/15 04:15:06;;;;;;;7.13;3.80;;;;;;;12.41;66.32;101541.13;5028977;28;20432;-68
2022/06/15 04:17:32;;;;;;;8.93;3.90;;;;;;;12.65;65.32;101537.31;5030078;28;20044;-68
2022/06/15 04:22:43;;;;;;;10.52;4.13;;;;;;;12.75;65.42;101526.38;5008534;28;20433;-69
2022/06/15 04:25:10;;;;;;;6.22;3.50;;;;;;;13.01;65.08;101524.16;5023147;28;20053;-68
2022/06/15 04:27:38;;;;;;;8.02;3.42;;;;;;;13.24;64.91;101528.31;5040465;28;20045;-68
2022/06/15 04:30:05;;;;;;;7.75;3.80;;;;;;;13.46;64.44;101531.56;5042127;28;20041;-68
2022/06/15 04:32:31;;;;;;;8.88;3.60;;;;;;;13.47;64.95;101530.66;5025546;28;20037;-69
2022/06/15 04:34:58;;;;;;;8.57;3.47;;;;;;;13.79;63.86;101528.09;5027096;28;20049;-68
2022/06/15 04:37:24;;;;;;;11.07;3.50;;;;;;;14.04;63.01;101537.28;5045625;28;20087;-68
2022/06/15 04:39:50;;;;;;;8.32;4.03;;;;;;;14.32;62.03;101533.16;5044632;28;20048;-68
2022/06/15 04:42:17;;;;;;;10.60;3.42;;;;;;;14.34;62.55;101540.06;5043150;28;20094;-68
2022/06/15 04:44:45;;;;;;;6.47;3.30;;;;;;;14.65;62.39;101535.75;5028352;28;20104;-68
2022/06/15 04:47:11;;;;;;;6.97;3.22;;;;;;;15.02;60.93;101530.94;5027761;28;20638;-70
2022/06/15 04:49:37;;;;;;;8.85;3.15;;;;;;;14.77;61.36;101533.28;5046061;28;20045;-70
2022/06/15 04:52:04;;;;;;;5.10;2.90;;;;;;;14.73;61.48;101526.47;5033515;28;20049;-69
2022/06/15 04:54:31;;;;;;;7.90;3.67;;;;;;;15.33;59.98;101519.47;5023813;28;20142;-69
2022/06/15 04:56:57;;;;;;;7.68;3.28;;;;;;;15.43;59.41;101519.75;5028082;28;20099;-69
2022/06/15 04:59:24;;;;;;;6.20;2.95;;;;;;;15.57;58.63;101518.00;5045566;28;20490;-69
2022/06/15 05:01:52;;;;;;;5.10;3.00;;;;;;;15.40;58.61;101512.00;5031244;28;20048;-69
2022/06/15 05:04:19;;;;;;;7.47;2.90;;;;;;;15.31;59.08;101512.53;5047066;28;20090;-69
2022/06/15 05:06:45;;;;;;;4.63;2.72;;;;;;;15.77;57.35;101508.88;5045696;28;20041;-69
2022/06/15 05:09:13;;;;;;;7.97;2.90;;;;;;;16.16;57.14;101510.00;5042643;28;20045;-71
2022/06/15 05:11:40;;;;;;;4.95;2.95;;;;;;;16.25;56.85;101504.13;5024496;28;20103;-70
2022/06/15 05:14:07;;;;;;;9.32;2.90;;;;;;;16.60;55.85;101515.13;5026885;28;20107;-70
2022/06/15 05:16:34;;;;;;;6.55;3.10;;;;;;;16.62;55.75;101516.75;5027477;28;20072;-70
2022/06/15 05:19:02;;;;;;;5.38;2.67;;;;;;;16.66;56.02;101520.06;5030452;28;20049;-70
2022/06/15 05:21:28;;;;;;;10.20;2.80;;;;;;;16.73;56.02;101508.97;5033945;28;20076;-66
2022/06/15 05:23:55;;;;;;;4.68;2.53;;;;;;;17.16;55.20;101504.31;5028649;28;20052;-67
2022/06/15 05:26:24;;;;;;;4.80;2.50;;;;;;;17.68;53.44;101506.13;5025118;28;20054;-67
2022/06/15 05:28:51;;;;;;;6.20;2.42;;;;;;;18.11;52.04;101526.03;5025533;28;20093;-67
2022/06/15 05:31:20;;;;;;;4.45;2.20;;;;;;;18.64;49.38;101526.69;5020387;28;20049;-67
2022/06/15 05:33:49;;;;;;;9.25;2.50;;;;;;;19.01;47.04;101520.34;5025702;28;20045;-67
2022/06/15 05:36:18;;;;;;;13.88;2.97;;;;;;;19.05;45.84;101526.28;5027074;28;20128;-67
2022/06/15 05:38:45;;;;;;;12.90;2.90;;;;;;;19.27;46.36;101521.91;5024850;28;20049;-67
2022/06/15 05:41:11;;;;;;;9.18;2.45;;;;;;;19.85;44.78;101522.78;5023428;28;20045;-68
2022/06/15 05:43:39;;;;;;;7.32;2.53;;;;;;;20.00;43.97;101524.25;5026751;28;20095;-67
2022/06/15 05:46:16;;;;;;;8.70;2.53;;;;;;;19.87;44.20;101526.19;5025097;28;20540;-67
2022/06/15 05:48:43;;;;;;;8.02;2.17;;;;;;;19.98;44.09;101520.00;5028934;28;20041;-67
2022/06/15 05:51:09;;;;;;;5.38;2.33;;;;;;;19.85;45.67;101528.94;5025913;28;20045;-67
2022/06/15 05:53:36;;;;;;;6.88;2.28;;;;;;;19.78;43.85;101522.41;5024647;28;20045;-67
2022/06/15 05:56:03;;;;;;;9.02;2.40;;;;;;;19.86;44.83;101524.47;5024612;28;20045;-67
2022/06/15 05:58:30;;;;;;;5.43;2.58;;;;;;;20.29;44.64;101513.97;5025477;28;20065;-67
2022/06/15 06:00:56;;;;;;;9.45;2.50;;;;;;;20.61;43.92;101524.72;5024076;28;20068;-67
2022/06/15 06:03:22;;;;;;;10.55;2.70;;;;;;;20.97;43.24;101519.03;5024217;28;20049;-67
2022/06/15 06:05:49;;;;;;;7.03;2.00;;;;;;;19.81;45.95;101518.66;5024153;28;20099;-67
2022/06/15 06:08:15;;;;;;;8.90;2.58;;;;;;;19.77;45.33;101515.38;5046065;28;20045;-75
2022/06/15 06:10:43;;;;;;;10.18;2.53;;;;;;;20.45;46.67;101513.59;5039687;28;20065;-66
2022/06/15 06:13:09;;;;;;;9.85;2.17;;;;;;;21.46;44.08;101509.59;5027819;28;20044;-66
2022/06/15 06:15:35;;;;;;;7.00;1.95;;;;;;;21.62;40.79;101512.63;5027551;28;20045;-66
2022/06/15 06:18:02;;;;;;;5.60;1.90;;;;;;;21.08;40.49;101512.78;5039798;28;20071;-66
2022/06/15 06:20:29;;;;;;;7.95;2.05;;;;;;;21.44;41.18;101508.88;5036608;28;20118;-66
2022/06/15 06:22:55;;;;;;;9.48;2.10;;;;;;;21.91;41.55;101519.03;5029585;28;20050;-66
2022/06/15 06:25:21;;;;;;;6.57;1.92;;;;;;;21.79;40.90;101525.41;5022286;28;20049;-67
2022/06/15 06:27:49;;;;;;;9.15;2.30;;;;;;;22.20;41.27;101529.84;5040571;28;20064;-66
2022/06/15 06:30:16;;;;;;;6.55;2.58;;;;;;;22.58;39.93;101526.44;5031442;28;20587;-66
2022/06/15 06:32:42;;;;;;;11.63;2.78;;;;;;;23.00;40.63;101530.59;5036000;28;20106;-66
2022/06/15 06:35:09;;;;;;;5.60;2.00;;;;;;;22.91;37.91;101531.41;5027253;28;20091;-66
2022/06/15 06:37:36;;;;;;;7.57;2.25;;;;;;;23.01;39.77;101529.63;5024608;28;20077;-66
2022/06/15 06:40:03;;;;;;;8.70;2.30;;;;;;;23.92;38.37;101534.44;5023010;28;20046;-66
2022/06/15 06:42:29;;;;;;;10.45;2.47;;;;;;;24.12;35.77;101525.34;5025364;28;20100;-66
2022/06/15 06:44:57;;;;;;;6.32;1.90;;;;;;;23.31;36.91;101531.31;5022549;28;20584;-66
2022/06/15 06:47:23;;;;;;;5.05;1.88;;;;;;;23.62;38.06;101524.78;5029628;28;20072;-66
2022/06/15 06:49:50;;;;;;;6.00;1.92;;;;;;;22.93;38.73;101536.63;5025885;28;20067;-66
2022/06/15 06:52:16;;;;;;;5.90;1.95;;;;;;;24.10;36.82;101521.09;5023164;28;20053;-66
2022/06/15 06:54:42;;;;;;;5.57;2.40;;;;;;;24.96;37.97;101520.66;5024210;28;20567;-66
2022/06/15 06:57:09;;;;;;;8.38;2.17;;;;;;;25.26;35.32;101514.03;5033166;28;20072;-66
2022/06/15 06:59:35;;;;;;;15.52;2.10;;;;;;;25.89;34.79;101517.34;5036303;28;20069;-67
2022/06/15 07:02:03;;;;;;;8.23;1.80;;;;;;;25.74;34.48;101515.41;5023317;28;20053;-67
2022/06/15 07:04:30;;;;;;;8.32;1.98;;;;;;;25.00;34.54;101511.28;5025818;28;20046;-67
2022/06/15 07:06:59;;;;;;;6.20;1.83;;;;;;;24.12;37.08;101517.31;5029365;28;20588;-67
2022/06/15 07:09:26;;;;;;;5.75;1.90;;;;;;;24.72;37.45;101509.66;5023788;28;20033;-67
2022/06/15 07:11:52;;;;;;;2.92;1.65;;;;;;;24.33;37.22;101517.06;5024543;28;20053;-66
2022/06/15 07:14:18;;;;;;;7.82;2.30;;;;;;;24.92;33.91;101507.69;5021940;28;20124;-66
2022/06/15 07:16:45;;;;;;;9.75;2.90;;;;;;;25.22;33.31;101503.75;5029128;28;20703;-68
2022/06/15 07:19:12;;;;;;;5.60;1.88;;;;;;;25.11;35.84;101508.38;5041446;28;20044;-67
2022/06/15 07:21:40;;;;;;;9.43;2.33;;;;;;;25.68;34.80;101506.16;5021956;28;20038;-67
2022/06/15 07:24:07;;;;;;;4.50;1.90;;;;;;;26.26;33.99;101511.69;5023442;28;20053;-67
2022/06/15 07:26:36;;;;;;;10.40;2.17;;;;;;;26.02;32.50;101507.00;5025704;28;20123;-67
2022/06/15 07:29:03;;;;;;;4.50;2.33;;;;;;;25.95;33.67;101503.28;5007621;28;20049;-67
2022/06/15 07:31:33;;;;;;;8.15;2.08;;;;;;;26.12;33.63;101510.44;5031335;28;20040;-67
2022/06/15 07:34:01;;;;;;;4.88;1.85;;;;;;;25.50;31.91;101506.16;5040507;28;20448;-67
2022/06/15 07:36:29;;;;;;;8.35;2.22;;;;;;;25.22;33.17;101503.75;5042092;28;20049;-68
2022/06/15 07:38:58;;;;;;;6.95;1.95;;;;;;;25.65;33.96;101504.59;5037426;28;20111;-68
2022/06/15 07:41:26;;;;;;;5.53;1.80;;;;;;;25.91;33.27;101499.22;5026249;28;20156;-68
2022/06/15 07:43:53;;;;;;;5.70;1.83;;;;;;;25.97;32.27;101498.59;5031697;28;20111;-68
2022/06/15 07:46:19;;;;;;;8.68;1.80;;;;;;;26.39;33.98;101505.81;5031989;28;20045;-68
2022/06/15 07:51:35;;;;;;;12.27;2.22;;;;;;;27.15;29.17;101487.66;5027625;28;20056;-67
2022/06/15 07:54:03;;;;;;;16.77;1.88;;;;;;;27.50;29.53;101492.69;5026536;28;20056;-67
2022/06/15 07:56:30;;;;;;;3.97;1.80;;;;;;;27.90;26.70;101480.97;5028197;28;20126;-67
2022/06/15 07:58:56;;;;;;;5.38;1.92;;;;;;;27.40;28.84;101485.78;5043674;28;20075;-67
2022/06/15 08:01:23;;;;;;;4.68;2.08;;;;;;;27.68;30.46;101484.41;5044802;28;20463;-66
2022/06/15 08:03:50;;;;;;;5.65;2.13;;;;;;;27.32;28.13;101481.25;5027680;28;20095;-66
2022/06/15 08:06:18;;;;;;;6.13;1.77;;;;;;;27.26;29.79;101481.09;5025514;28;20107;-66
2022/06/15 08:08:46;;;;;;;5.78;2.13;;;;;;;27.35;31.27;101480.06;5024687;28;20045;-66
2022/06/15 08:11:13;;;;;;;4.93;2.08;;;;;;;27.79;28.22;101481.34;5021952;28;20049;-66
2022/06/15 08:13:39;;;;;;;5.55;1.80;;;;;;;27.98;29.00;101472.00;5027387;28;20463;-66
2022/06/15 08:16:07;;;;;;;9.57;2.15;;;;;;;27.84;26.98;101473.59;5025928;28;20498;-66
2022/06/15 08:18:39;;;;;;;4.70;1.85;;;;;;;28.29;27.26;101472.94;5046126;28;20069;-67
2022/06/15 08:21:10;;;;;;;5.65;2.00;;;;;;;28.17;29.34;101471.63;5046580;28;20098;-67
2022/06/15 08:23:40;;;;;;;18.80;2.10;;;;;;;27.95;31.02;101465.13;5045600;28;20090;-67
2022/06/15 08:26:12;;;;;;;7.78;2.15;;;;;;;26.87;27.98;101478.22;5046849;28;20045;-67
2022/06/15 08:28:40;;;;;;;;;;;;;;;27.07;31.63;101466.97;5045772;28;20045;-67
2022/06/15 08:31:07;;;;;;;5.65;1.60;;;;;;;27.85;27.61;101461.81;5046296;28;20014;-67
2022/06/15 08:33:34;;;;;;;13.18;2.20;;;;;;;28.69;29.93;101465.63;5045301;28;20439;-67
2022/06/15 08:36:00;;;;;;;5.72;1.80;;;;;;;29.28;25.61;101450.47;5024695;28;20052;-66
2022/06/15 08:38:28;;;;;;;10.32;1.90;;;;;;;28.31;26.64;101453.84;5030896;28;20057;-67
2022/06/15 08:40:57;;;;;;;12.98;2.28;;;;;;;28.49;26.14;101440.97;5025906;28;20115;-67
2022/06/15 08:43:41;;;;;;;8.95;2.00;;;;;;;28.45;27.00;101445.03;5026072;28;20444;-67
2022/06/15 08:46:18;;;;;;;6.18;1.70;;;;;;;28.44;25.99;101448.75;5025404;28;20494;-67
2022/06/15 08:48:59;;;;;;;7.80;2.05;;;;;;;28.67;26.49;101444.19;5025051;28;20045;-67
2022/06/15 08:51:30;;;;;;;4.05;1.80;;;;;;;29.33;27.53;101445.38;5025803;28;20056;-67
2022/06/15 08:54:02;;;;;;;6.57;1.88;;;;;;;29.41;27.84;101448.00;5026279;28;20111;-67
2022/06/15 08:56:35;;;;;;;5.55;1.90;;;;;;;29.36;27.27;101439.59;5025691;28;20095;-67
2022/06/15 08:59:11;;;;;;;6.63;2.30;;;;;;;28.79;26.49;101440.06;5025088;28;20069;-66
2022/06/15 09:01:42;;;;;;;10.20;2.47;;;;;;;28.93;30.00;101436.59;5027724;28;20080;-67
2022/06/15 09:04:23;;;;;;;3.97;1.90;;;;;;;29.51;27.04;101445.00;5025159;28;20056;-68
2022/06/15 09:07:02;;;;;;;8.15;2.10;;;;;;;29.34;27.46;101437.06;5009907;28;20506;-68
2022/06/15 09:09:43;;;;;;;6.85;2.05;;;;;;;29.33;27.05;101435.41;5026134;28;20091;-67
2022/06/15 09:15:18;;;;;;;5.55;2.03;;;;;;;30.56;24.04;101439.09;5019754;28;20520;-67
2022/06/15 09:17:47;;;;;;;4.15;1.70;;;;;;;30.53;26.39;101434.09;5036656;28;20130;-66
2022/06/15 09:20:18;;;;;;;5.40;1.95;;;;;;;30.53;25.23;101434.09;5033039;28;20041;-67
2022/06/15 09:22:51;;;;;;;5.85;1.80;;;;;;;30.21;23.94;101445.34;5036919;28;20457;-66
2022/06/15 09:25:22;;;;;;;5.60;2.00;;;;;;;29.59;26.07;101432.25;5026737;28;20490;-66
2022/06/15 09:27:56;;;;;;;6.83;2.80;;;;;;;30.07;24.79;101432.72;5026591;28;20395;-66
2022/06/15 09:30:27;;;;;;;5.50;2.15;;;;;;;29.72;26.73;101429.72;5025032;28;20284;-66
2022/06/15 09:32:58;;;;;;;7.82;2.13;;;;;;;30.66;26.38;101438.81;5024616;28;20128;-67
2022/06/15 09:35:31;;;;;;;6.35;2.08;;;;;;;30.89;26.63;101424.00;5023690;28;20286;-66
2022/06/15 09:38:02;;;;;;;11.23;2.00;;;;;;;30.69;24.57;101438.41;5028018;28;20041;-66
2022/06/15 09:40:41;;;;;;;6.68;1.90;;;;;;;30.38;23.36;101434.09;5026006;28;20053;-66
2022/06/15 09:43:13;;;;;;;6.95;2.00;;;;;;;29.44;25.39;101442.22;5028840;28;20091;-66
2022/06/15 09:45:48;;;;;;;4.10;1.67;;;;;;;29.24;25.48;101436.47;5012909;28;20103;-66
2022/06/15 09:48:24;;;;;;;4.20;1.70;;;;;;;29.81;26.97;101444.00;5025707;28;20057;-67
2022/06/15 09:50:57;;;;;;;5.10;1.80;;;;;;;29.21;25.48;101423.34;5025672;28;20107;-67
2022/06/15 09:53:36;;;;;;;4.53;1.70;;;;;;;30.00;26.00;101427.22;5024948;28;20107;-66
2022/06/15 09:56:06;;;;;;;3.03;1.67;;;;;;;30.47;24.40;101423.19;5023353;28;20115;-66
2022/06/15 09:58:37;;;;;;;8.35;2.65;;;;;;;30.52;25.04;101421.59;5024491;28;20521;-66
2022/06/15 10:01:07;;;;;;;5.50;1.88;;;;;;;30.06;26.89;101421.06;5023231;28;20520;-66
2022/06/15 10:03:36;;;;;;;7.47;2.28;;;;;;;29.91;26.04;101425.63;5026114;28;20144;-66
2022/06/15 10:06:14;;;;;;;9.75;1.95;;;;;;;30.82;24.59;101412.28;5024778;28;20539;-66
2022/06/15 10:08:40;;;;;;;5.63;2.15;;;;;;;30.98;27.12;101421.19;5023647;28;20041;-66
2022/06/15 10:11:15;;;;;;;5.28;2.30;;;;;;;31.08;23.55;101410.88;5024095;28;20123;-66
2022/06/15 10:13:43;;;;;;;5.70;1.80;;;;;;;31.19;24.67;101415.78;5022635;28;20409;-66
2022/06/15 10:16:24;;;;;;;5.78;2.00;;;;;;;30.67;24.99;101422.34;5025110;28;20399;-66
2022/06/15 10:18:53;;;;;;;8.60;2.20;;;;;;;30.88;25.07;101411.53;5028566;28;20049;-66
2022/06/15 10:21:21;;;;;;;5.13;1.58;;;;;;;30.73;26.12;101424.31;5025368;28;20045;-66
2022/06/15 10:24:03;;;;;;;4.93;1.88;;;;;;;31.35;24.11;101408.16;5025940;28;20422;-66
2022/06/15 10:26:34;;;;;;;5.30;2.10;;;;;;;30.67;25.51;101408.81;5028054;28;20055;-66
2022/06/15 10:29:23;;;;;;;5.53;1.77;;;;;;;31.58;24.09;101402.50;5023251;28;20408;-66
2022/06/15 10:32:02;;;;;;;4.22;1.80;;;;;;;31.74;24.53;101396.72;5025175;28;20053;-66
2022/06/15 10:34:31;;;;;;;10.00;2.00;;;;;;;31.87;22.68;101393.22;5024544;28;20045;-66
2022/06/15 10:37:00;;;;;;;4.82;1.70;;;;;;;30.54;23.10;101399.75;5023039;28;20045;-66
2022/06/15 10:39:30;;;;;;;10.40;2.10;;;;;;;29.01;24.08;101392.47;5023942;28;20441;-66
2022/06/15 10:42:00;;;;;;;5.18;1.92;;;;;;;28.67;25.20;101395.63;5026000;28;20069;-66
2022/06/15 10:44:30;;;;;;;6.70;1.85;;;;;;;29.69;25.40;101386.84;5025859;28;20041;-66
2022/06/15 10:47:02;;;;;;;5.25;1.90;;;;;;;30.87;25.68;101388.19;5024154;28;20049;-66
2022/06/15 10:49:32;;;;;;;4.05;1.73;;;;;;;30.71;23.44;101382.22;5024083;28;20037;-66
2022/06/15 10:51:59;;;;;;;3.53;1.77;;;;;;;29.16;24.37;101390.63;5020500;28;20049;-66
2022/06/15 11:02:06;;;;;;;8.43;1.98;;;;;;;29.10;24.76;101382.44;5024972;28;20037;-67
2022/06/15 11:03:15;;;;;;;6.30;2.25;;;;;;;30.61;25.03;101371.72;5024021;28;20099;-66
2022/06/15 11:05:44;;;;;;;8.27;2.20;;;;;;;29.95;24.11;101375.56;5030540;28;20047;-66
2022/06/15 11:08:16;;;;;;;6.55;2.42;;;;;;;30.51;23.98;101362.25;5040820;28;20146;-66
2022/06/15 11:10:46;;;;;;;5.38;1.90;;;;;;;31.15;22.87;101363.00;5041493;28;20477;-66
2022/06/15 11:13:30;;;;;;;10.43;1.92;;;;;;;31.11;22.66;101359.03;5024331;28;20045;-66
2022/06/15 11:18:44;;;;;;;6.35;2.05;;;;;;;30.81;24.32;101356.47;5025053;28;20052;-66
2022/06/15 11:21:14;;;;;;;8.43;2.35;;;;;;;31.21;24.50;101356.78;5025426;28;20123;-66
2022/06/15 11:23:50;;;;;;;5.53;1.58;;;;;;;30.95;23.53;101354.69;5022970;28;20133;-66
2022/06/15 11:29:35;;;;;;;4.93;1.95;;;;;;;30.82;25.03;101350.00;5018125;28;20119;-66
2022/06/15 11:32:06;;;;;;;7.10;2.25;;;;;;;30.88;27.39;101346.53;5023923;28;20410;-66
2022/06/15 11:34:41;;;;;;;6.80;1.80;;;;;;;31.81;25.74;101346.06;5022384;28;20042;-66
2022/06/15 11:37:15;;;;;;;4.82;1.80;;;;;;;32.05;24.97;101344.66;5025399;28;20414;-65
2022/06/15 11:39:47;;;;;;;5.15;1.92;;;;;;;31.46;21.52;101338.16;5024815;28;20178;-66
2022/06/15 11:42:16;;;;;;;12.88;2.10;;;;;;;31.52;25.96;101340.94;5022988;28;20041;-65
2022/06/15 11:44:45;;;;;;;4.63;2.10;;;;;;;31.95;22.79;101327.13;5022867;28;20088;-65
2022/06/15 11:47:27;;;;;;;4.32;1.95;;;;;;;31.99;25.06;101325.66;5022585;28;20422;-65
2022/06/15 11:50:02;;;;;;;7.65;2.05;;;;;;;32.70;22.90;101321.44;5022991;28;20052;-65
2022/06/15 11:52:41;;;;;;;12.77;2.35;;;;;;;32.77;21.99;101316.81;5022510;28;20053;-65
2022/06/15 11:55:24;;;;;;;6.68;1.92;;;;;;;32.62;23.50;101327.06;5023348;28;20077;-65
2022/06/15 11:58:09;;;;;;;5.10;1.70;;;;;;;33.01;22.47;101318.03;5023004;28;20111;-65
2022/06/15 12:00:41;;;;;;;2.40;1.40;;;;;;;32.90;20.25;101319.50;5024069;28;20049;-65